sensor_id;sensor_type;location;lat;lon;timestamp;pressure;altitude;pressure_sealevel;temperature;humidity
67545;BME280;54380;47.770;11.150;2023-03-18T00:00:23;94451.63;;;6.34;60.20
67545;BME280;54380;47.770;11.150;2023-03-18T00:02:50;94461.09;;;6.35;60.53
67545;BME280;54380;47.770;11.150;2023-03-18T00:05:19;94453.81;;;6.37;60.54
67545;BME280;54380;47.770;11.150;2023-03-18T00:07:45;94466.19;;;6.42;60.69
67545;BME280;54380;47.770;11.150;2023-03-18T00:10:14;94465.59;;;6.52;60.78
67545;BME280;54380;47.770;11.150;2023-03-18T00:12:42;94471.81;;;6.63;60.40
67545;BME280;54380;47.770;11.150;2023-03-18T00:15:11;94471.69;;;6.69;59.79
67545;BME280;54380;47.770;11.150;2023-03-18T00:17:38;94472.56;;;6.75;59.45
67545;BME280;54380;47.770;11.150;2023-03-18T00:20:08;94474.47;;;6.79;59.40
67545;BME280;54380;47.770;11.150;2023-03-18T00:22:36;94478.78;;;6.86;59.47
67545;BME280;54380;47.770;11.150;2023-03-18T00:25:04;94477.25;;;6.90;59.51
67545;BME280;54380;47.770;11.150;2023-03-18T00:27:34;94483.31;;;6.90;59.17
67545;BME280;54380;47.770;11.150;2023-03-18T00:30:02;94481.16;;;6.87;59.02
67545;BME280;54380;47.770;11.150;2023-03-18T00:32:31;94485.06;;;6.85;58.94
67545;BME280;54380;47.770;11.150;2023-03-18T00:34:58;94490.53;;;6.83;58.90
67545;BME280;54380;47.770;11.150;2023-03-18T00:37:27;94482.88;;;6.81;58.90
67545;BME280;54380;47.770;11.150;2023-03-18T00:40:00;94475.84;;;6.82;59.05
67545;BME280;54380;47.770;11.150;2023-03-18T00:42:36;94490.31;;;6.85;58.85
67545;BME280;54380;47.770;11.150;2023-03-18T00:45:07;94486.66;;;6.86;58.89
67545;BME280;54380;47.770;11.150;2023-03-18T00:47:36;94489.50;;;6.84;58.91
67545;BME280;54380;47.770;11.150;2023-03-18T00:50:04;94497.03;;;6.80;58.69
67545;BME280;54380;47.770;11.150;2023-03-18T00:52:33;94488.38;;;6.80;58.75
67545;BME280;54380;47.770;11.150;2023-03-18T00:54:59;94491.00;;;6.80;58.92
67545;BME280;54380;47.770;11.150;2023-03-18T00:57:28;94491.22;;;6.78;58.71
67545;BME280;54380;47.770;11.150;2023-03-18T00:59:56;94491.50;;;6.77;58.58
67545;BME280;54380;47.770;11.150;2023-03-18T01:02:25;94486.69;;;6.74;58.78
67545;BME280;54380;47.770;11.150;2023-03-18T01:04:54;94490.91;;;6.75;58.60
67545;BME280;54380;47.770;11.150;2023-03-18T01:07:21;94485.41;;;6.76;58.62
67545;BME280;54380;47.770;11.150;2023-03-18T01:09:48;94489.88;;;6.76;58.91
67545;BME280;54380;47.770;11.150;2023-03-18T01:12:16;94487.72;;;6.73;58.24
67545;BME280;54380;47.770;11.150;2023-03-18T01:14:43;94489.78;;;6.71;58.50
67545;BME280;54380;47.770;11.150;2023-03-18T01:17:11;94489.47;;;6.67;58.60
67545;BME280;54380;47.770;11.150;2023-03-18T01:19:38;94488.34;;;6.63;58.50
67545;BME280;54380;47.770;11.150;2023-03-18T01:22:05;94488.03;;;6.59;58.86
67545;BME280;54380;47.770;11.150;2023-03-18T01:24:39;94495.78;;;6.54;58.83
67545;BME280;54380;47.770;11.150;2023-03-18T01:27:06;94479.88;;;6.44;59.09
67545;BME280;54380;47.770;11.150;2023-03-18T01:29:35;94488.19;;;6.41;59.47
67545;BME280;54380;47.770;11.150;2023-03-18T01:32:06;94489.78;;;6.42;59.54
67545;BME280;54380;47.770;11.150;2023-03-18T01:34:34;94479.63;;;6.46;59.62
67545;BME280;54380;47.770;11.150;2023-03-18T01:37:01;94485.09;;;6.44;59.30
67545;BME280;54380;47.770;11.150;2023-03-18T01:39:31;94480.13;;;6.43;59.39
67545;BME280;54380;47.770;11.150;2023-03-18T01:41:57;94475.31;;;6.40;59.43
67545;BME280;54380;47.770;11.150;2023-03-18T01:44:29;94475.78;;;6.36;59.10
67545;BME280;54380;47.770;11.150;2023-03-18T01:47:04;94471.81;;;6.34;59.18
67545;BME280;54380;47.770;11.150;2023-03-18T01:49:36;94477.78;;;6.29;59.31
67545;BME280;54380;47.770;11.150;2023-03-18T01:52:06;94476.16;;;6.28;59.66
67545;BME280;54380;47.770;11.150;2023-03-18T01:54:37;94477.03;;;6.34;60.43
67545;BME280;54380;47.770;11.150;2023-03-18T01:57:06;94479.06;;;6.44;59.88
67545;BME280;54380;47.770;11.150;2023-03-18T01:59:35;94483.94;;;6.52;59.88
67545;BME280;54380;47.770;11.150;2023-03-18T02:02:06;94486.44;;;6.58;59.20
67545;BME280;54380;47.770;11.150;2023-03-18T02:04:38;94485.72;;;6.63;59.42
67545;BME280;54380;47.770;11.150;2023-03-18T02:07:13;94487.31;;;6.64;59.33
67545;BME280;54380;47.770;11.150;2023-03-18T02:09:41;94488.59;;;6.62;58.76
67545;BME280;54380;47.770;11.150;2023-03-18T02:12:10;94483.56;;;6.60;58.92
67545;BME280;54380;47.770;11.150;2023-03-18T02:14:37;94492.84;;;6.51;59.19
67545;BME280;54380;47.770;11.150;2023-03-18T02:17:08;94485.34;;;6.43;59.15
67545;BME280;54380;47.770;11.150;2023-03-18T02:19:49;94492.09;;;6.38;59.61
67545;BME280;54380;47.770;11.150;2023-03-18T02:22:24;94489.16;;;6.35;59.61
67545;BME280;54380;47.770;11.150;2023-03-18T02:25:08;94493.81;;;6.33;59.72
67545;BME280;54380;47.770;11.150;2023-03-18T02:27:41;94492.22;;;6.32;59.82
67545;BME280;54380;47.770;11.150;2023-03-18T02:30:13;94492.47;;;6.30;59.74
67545;BME280;54380;47.770;11.150;2023-03-18T02:32:45;94495.88;;;6.31;59.84
67545;BME280;54380;47.770;11.150;2023-03-18T02:35:13;94493.56;;;6.34;59.96
67545;BME280;54380;47.770;11.150;2023-03-18T02:37:40;94497.31;;;6.38;59.86
67545;BME280;54380;47.770;11.150;2023-03-18T02:40:13;94504.50;;;6.43;60.00
67545;BME280;54380;47.770;11.150;2023-03-18T02:42:42;94497.75;;;6.47;59.91
67545;BME280;54380;47.770;11.150;2023-03-18T02:45:16;94505.72;;;6.52;59.75
67545;BME280;54380;47.770;11.150;2023-03-18T02:48:11;94506.75;;;6.51;59.72
67545;BME280;54380;47.770;11.150;2023-03-18T02:50:39;94505.38;;;6.49;60.14
67545;BME280;54380;47.770;11.150;2023-03-18T02:53:10;94499.56;;;6.47;59.63
67545;BME280;54380;47.770;11.150;2023-03-18T02:55:37;94503.72;;;6.43;59.64
67545;BME280;54380;47.770;11.150;2023-03-18T02:58:05;94511.00;;;6.41;60.10
67545;BME280;54380;47.770;11.150;2023-03-18T03:00:33;94504.16;;;6.40;60.28
67545;BME280;54380;47.770;11.150;2023-03-18T03:03:00;94513.38;;;6.42;60.22
67545;BME280;54380;47.770;11.150;2023-03-18T03:05:27;94509.50;;;6.45;59.99
67545;BME280;54380;47.770;11.150;2023-03-18T03:07:56;94518.50;;;6.49;60.25
67545;BME280;54380;47.770;11.150;2023-03-18T03:10:23;94519.53;;;6.48;60.08
67545;BME280;54380;47.770;11.150;2023-03-18T03:12:50;94516.91;;;6.48;60.04
67545;BME280;54380;47.770;11.150;2023-03-18T03:15:20;94521.34;;;6.47;59.94
67545;BME280;54380;47.770;11.150;2023-03-18T03:17:53;94527.06;;;6.44;59.97
67545;BME280;54380;47.770;11.150;2023-03-18T03:20:20;94527.53;;;6.41;59.96
67545;BME280;54380;47.770;11.150;2023-03-18T03:22:47;94536.88;;;6.37;60.01
67545;BME280;54380;47.770;11.150;2023-03-18T03:25:16;94537.91;;;6.36;60.21
67545;BME280;54380;47.770;11.150;2023-03-18T03:27:42;94541.88;;;6.38;59.98
67545;BME280;54380;47.770;11.150;2023-03-18T03:30:11;94549.28;;;6.42;59.87
67545;BME280;54380;47.770;11.150;2023-03-18T03:32:39;94550.34;;;6.41;59.79
67545;BME280;54380;47.770;11.150;2023-03-18T03:35:11;94550.53;;;6.39;59.83
67545;BME280;54380;47.770;11.150;2023-03-18T03:37:38;94547.94;;;6.39;60.19
67545;BME280;54380;47.770;11.150;2023-03-18T03:40:05;94558.19;;;6.41;59.92
67545;BME280;54380;47.770;11.150;2023-03-18T03:42:33;94555.56;;;6.41;59.88
67545;BME280;54380;47.770;11.150;2023-03-18T03:45:01;94561.03;;;6.39;60.21
67545;BME280;54380;47.770;11.150;2023-03-18T03:47:29;94556.38;;;6.41;59.72
67545;BME280;54380;47.770;11.150;2023-03-18T03:49:57;94559.56;;;6.43;59.63
67545;BME280;54380;47.770;11.150;2023-03-18T03:52:24;94561.38;;;6.43;59.83
67545;BME280;54380;47.770;11.150;2023-03-18T03:54:51;94558.50;;;6.44;59.75
67545;BME280;54380;47.770;11.150;2023-03-18T03:57:18;94557.63;;;6.38;60.26
67545;BME280;54380;47.770;11.150;2023-03-18T03:59:45;94565.84;;;6.30;60.05
67545;BME280;54380;47.770;11.150;2023-03-18T04:02:18;94563.91;;;6.26;60.28
67545;BME280;54380;47.770;11.150;2023-03-18T04:04:46;94573.59;;;6.25;60.53
67545;BME280;54380;47.770;11.150;2023-03-18T04:07:25;94573.59;;;6.25;60.47
67545;BME280;54380;47.770;11.150;2023-03-18T04:09:52;94574.06;;;6.22;59.75
67545;BME280;54380;47.770;11.150;2023-03-18T04:12:19;94575.91;;;6.22;60.41
67545;BME280;54380;47.770;11.150;2023-03-18T04:14:53;94569.63;;;6.23;60.27
67545;BME280;54380;47.770;11.150;2023-03-18T04:17:21;94566.22;;;6.22;60.12
67545;BME280;54380;47.770;11.150;2023-03-18T04:19:49;94574.06;;;6.22;59.92
67545;BME280;54380;47.770;11.150;2023-03-18T04:22:16;94578.53;;;6.22;60.20
67545;BME280;54380;47.770;11.150;2023-03-18T04:24:45;94573.97;;;6.17;60.28
67545;BME280;54380;47.770;11.150;2023-03-18T04:27:12;94567.25;;;6.09;60.17
67545;BME280;54380;47.770;11.150;2023-03-18T04:29:38;94559.50;;;6.03;60.07
67545;BME280;54380;47.770;11.150;2023-03-18T04:32:05;94558.94;;;6.01;60.54
67545;BME280;54380;47.770;11.150;2023-03-18T04:34:34;94561.44;;;5.96;59.93
67545;BME280;54380;47.770;11.150;2023-03-18T04:37:02;94567.13;;;5.92;60.31
67545;BME280;54380;47.770;11.150;2023-03-18T04:39:30;94564.94;;;5.89;60.71
67545;BME280;54380;47.770;11.150;2023-03-18T04:41:59;94559.16;;;5.87;60.42
67545;BME280;54380;47.770;11.150;2023-03-18T04:44:26;94563.03;;;5.85;60.81
67545;BME280;54380;47.770;11.150;2023-03-18T04:46:53;94564.81;;;5.84;60.50
67545;BME280;54380;47.770;11.150;2023-03-18T04:49:21;94566.44;;;5.85;60.42
67545;BME280;54380;47.770;11.150;2023-03-18T04:51:51;94567.56;;;5.89;60.94
67545;BME280;54380;47.770;11.150;2023-03-18T04:54:27;94572.34;;;5.92;60.42
67545;BME280;54380;47.770;11.150;2023-03-18T04:56:58;94571.13;;;5.95;60.93
67545;BME280;54380;47.770;11.150;2023-03-18T04:59:27;94575.56;;;5.94;60.52
67545;BME280;54380;47.770;11.150;2023-03-18T05:01:54;94569.53;;;5.94;60.49
67545;BME280;54380;47.770;11.150;2023-03-18T05:04:21;94571.34;;;5.93;60.67
67545;BME280;54380;47.770;11.150;2023-03-18T05:06:51;94568.53;;;5.95;60.06
67545;BME280;54380;47.770;11.150;2023-03-18T05:09:23;94565.06;;;5.94;60.06
67545;BME280;54380;47.770;11.150;2023-03-18T05:11:50;94564.72;;;5.91;60.82
67545;BME280;54380;47.770;11.150;2023-03-18T05:14:24;94568.38;;;5.90;60.77
67545;BME280;54380;47.770;11.150;2023-03-18T05:16:52;94569.25;;;5.84;60.08
67545;BME280;54380;47.770;11.150;2023-03-18T05:19:19;94564.69;;;5.79;60.68
67545;BME280;54380;47.770;11.150;2023-03-18T05:21:55;94569.41;;;5.77;60.94
67545;BME280;54380;47.770;11.150;2023-03-18T05:24:23;94563.56;;;5.75;60.61
67545;BME280;54380;47.770;11.150;2023-03-18T05:26:49;94567.31;;;5.79;60.62
67545;BME280;54380;47.770;11.150;2023-03-18T05:29:19;94564.59;;;5.86;61.12
67545;BME280;54380;47.770;11.150;2023-03-18T05:32:09;94563.13;;;5.90;60.78
67545;BME280;54380;47.770;11.150;2023-03-18T05:34:37;94571.13;;;5.95;60.63
67545;BME280;54380;47.770;11.150;2023-03-18T05:37:07;94569.41;;;6.01;61.00
67545;BME280;54380;47.770;11.150;2023-03-18T05:39:39;94569.28;;;6.07;60.84
67545;BME280;54380;47.770;11.150;2023-03-18T05:42:10;94573.06;;;6.11;60.06
67545;BME280;54380;47.770;11.150;2023-03-18T05:44:38;94576.78;;;6.15;60.05
67545;BME280;54380;47.770;11.150;2023-03-18T05:47:09;94574.53;;;6.19;59.71
67545;BME280;54380;47.770;11.150;2023-03-18T05:50:04;94573.72;;;6.19;59.67
67545;BME280;54380;47.770;11.150;2023-03-18T05:52:32;94569.97;;;6.14;60.11
67545;BME280;54380;47.770;11.150;2023-03-18T05:55:03;94574.06;;;6.10;59.88
67545;BME280;54380;47.770;11.150;2023-03-18T05:57:33;94579.78;;;6.07;59.64
67545;BME280;54380;47.770;11.150;2023-03-18T06:00:04;94576.69;;;6.10;60.01
67545;BME280;54380;47.770;11.150;2023-03-18T06:02:47;94566.44;;;6.09;59.79
67545;BME280;54380;47.770;11.150;2023-03-18T06:05:16;94573.28;;;6.10;59.87
67545;BME280;54380;47.770;11.150;2023-03-18T06:07:44;94569.06;;;6.09;60.04
67545;BME280;54380;47.770;11.150;2023-03-18T06:10:11;94576.25;;;6.13;60.12
67545;BME280;54380;47.770;11.150;2023-03-18T06:12:38;94577.69;;;6.21;60.63
67545;BME280;54380;47.770;11.150;2023-03-18T06:15:06;94572.34;;;6.28;60.09
67545;BME280;54380;47.770;11.150;2023-03-18T06:17:34;94572.44;;;6.33;60.21
67545;BME280;54380;47.770;11.150;2023-03-18T06:20:03;94576.75;;;6.39;59.88
67545;BME280;54380;47.770;11.150;2023-03-18T06:22:30;94574.25;;;6.44;59.78
67545;BME280;54380;47.770;11.150;2023-03-18T06:24:58;94578.00;;;6.48;59.53
67545;BME280;54380;47.770;11.150;2023-03-18T06:27:24;94584.38;;;6.52;59.45
67545;BME280;54380;47.770;11.150;2023-03-18T06:29:55;94579.47;;;6.56;59.85
67545;BME280;54380;47.770;11.150;2023-03-18T06:32:22;94584.47;;;6.57;59.75
67545;BME280;54380;47.770;11.150;2023-03-18T06:34:49;94584.00;;;6.60;59.80
67545;BME280;54380;47.770;11.150;2023-03-18T06:37:17;94585.94;;;6.65;59.57
67545;BME280;54380;47.770;11.150;2023-03-18T06:39:44;94584.47;;;6.69;59.99
67545;BME280;54380;47.770;11.150;2023-03-18T06:42:12;94579.41;;;6.79;59.79
67545;BME280;54380;47.770;11.150;2023-03-18T06:44:47;94587.78;;;6.93;59.44
67545;BME280;54380;47.770;11.150;2023-03-18T06:47:25;94592.97;;;7.05;59.62
67545;BME280;54380;47.770;11.150;2023-03-18T06:49:55;94587.91;;;7.15;59.50
67545;BME280;54380;47.770;11.150;2023-03-18T06:52:31;94590.25;;;7.29;59.21
67545;BME280;54380;47.770;11.150;2023-03-18T06:55:04;94593.31;;;7.37;59.19
67545;BME280;54380;47.770;11.150;2023-03-18T06:57:35;94588.44;;;7.46;58.54
67545;BME280;54380;47.770;11.150;2023-03-18T07:00:03;94589.97;;;7.59;58.82
67545;BME280;54380;47.770;11.150;2023-03-18T07:02:30;94586.00;;;7.73;58.79
67545;BME280;54380;47.770;11.150;2023-03-18T07:04:59;94579.41;;;7.87;58.58
67545;BME280;54380;47.770;11.150;2023-03-18T07:07:28;94588.75;;;8.00;58.69
67545;BME280;54380;47.770;11.150;2023-03-18T07:09:56;94578.94;;;8.12;58.66
67545;BME280;54380;47.770;11.150;2023-03-18T07:12:23;94581.50;;;8.24;58.17
67545;BME280;54380;47.770;11.150;2023-03-18T07:14:50;94580.25;;;8.32;58.52
67545;BME280;54380;47.770;11.150;2023-03-18T07:17:18;94579.88;;;8.40;58.40
67545;BME280;54380;47.770;11.150;2023-03-18T07:19:45;94571.56;;;8.48;58.00
67545;BME280;54380;47.770;11.150;2023-03-18T07:22:12;94568.03;;;8.60;58.09
67545;BME280;54380;47.770;11.150;2023-03-18T07:24:41;94574.19;;;8.70;57.86
67545;BME280;54380;47.770;11.150;2023-03-18T07:27:09;94572.47;;;8.81;58.13
67545;BME280;54380;47.770;11.150;2023-03-18T07:29:39;94579.44;;;8.92;58.05
67545;BME280;54380;47.770;11.150;2023-03-18T07:32:06;94576.69;;;9.04;57.77
67545;BME280;54380;47.770;11.150;2023-03-18T07:34:33;94578.38;;;9.15;57.66
67545;BME280;54380;47.770;11.150;2023-03-18T07:36:59;94571.13;;;9.28;57.70
67545;BME280;54380;47.770;11.150;2023-03-18T07:39:26;94573.34;;;9.41;57.14
67545;BME280;54380;47.770;11.150;2023-03-18T07:41:54;94579.25;;;9.53;57.19
67545;BME280;54380;47.770;11.150;2023-03-18T07:44:28;94585.41;;;9.64;56.84
67545;BME280;54380;47.770;11.150;2023-03-18T07:46:55;94587.63;;;9.77;56.40
67545;BME280;54380;47.770;11.150;2023-03-18T07:49:23;94584.28;;;9.92;56.69
67545;BME280;54380;47.770;11.150;2023-03-18T07:51:49;94582.81;;;10.06;56.52
67545;BME280;54380;47.770;11.150;2023-03-18T07:54:16;94589.22;;;10.21;55.88
67545;BME280;54380;47.770;11.150;2023-03-18T07:56:43;94585.66;;;10.37;55.78
67545;BME280;54380;47.770;11.150;2023-03-18T07:59:10;94586.00;;;10.51;55.96
67545;BME280;54380;47.770;11.150;2023-03-18T08:01:39;94582.91;;;10.64;55.71
67545;BME280;54380;47.770;11.150;2023-03-18T08:04:07;94581.88;;;10.75;55.04
67545;BME280;54380;47.770;11.150;2023-03-18T08:06:34;94588.78;;;10.87;54.33
67545;BME280;54380;47.770;11.150;2023-03-18T08:09:01;94585.63;;;10.95;53.80
67545;BME280;54380;47.770;11.150;2023-03-18T08:11:29;94583.31;;;11.09;54.03
67545;BME280;54380;47.770;11.150;2023-03-18T08:13:56;94585.75;;;11.31;54.13
67545;BME280;54380;47.770;11.150;2023-03-18T08:16:29;94576.53;;;11.49;53.43
67545;BME280;54380;47.770;11.150;2023-03-18T08:19:06;94576.25;;;11.60;53.47
67545;BME280;54380;47.770;11.150;2023-03-18T08:21:33;94582.88;;;11.73;53.59
67545;BME280;54380;47.770;11.150;2023-03-18T08:24:00;94579.19;;;11.90;53.78
67545;BME280;54380;47.770;11.150;2023-03-18T08:26:27;94583.94;;;12.08;53.18
67545;BME280;54380;47.770;11.150;2023-03-18T08:28:54;94584.72;;;12.24;52.88
67545;BME280;54380;47.770;11.150;2023-03-18T08:31:22;94586.56;;;12.39;52.68
67545;BME280;54380;47.770;11.150;2023-03-18T08:33:49;94587.56;;;12.53;52.35
67545;BME280;54380;47.770;11.150;2023-03-18T08:36:21;94581.44;;;12.68;52.12
67545;BME280;54380;47.770;11.150;2023-03-18T08:38:48;94586.44;;;12.80;51.96
67545;BME280;54380;47.770;11.150;2023-03-18T08:41:15;94575.53;;;12.91;51.81
67545;BME280;54380;47.770;11.150;2023-03-18T08:43:42;94577.59;;;13.00;51.17
67545;BME280;54380;47.770;11.150;2023-03-18T08:46:10;94571.72;;;13.08;51.07
67545;BME280;54380;47.770;11.150;2023-03-18T08:48:37;94569.56;;;13.20;51.02
67545;BME280;54380;47.770;11.150;2023-03-18T08:51:04;94570.56;;;13.34;50.80
67545;BME280;54380;47.770;11.150;2023-03-18T08:53:34;94564.59;;;13.53;50.72
67545;BME280;54380;47.770;11.150;2023-03-18T08:56:04;94559.44;;;13.72;49.80
67545;BME280;54380;47.770;11.150;2023-03-18T08:58:33;94556.91;;;13.91;49.12
67545;BME280;54380;47.770;11.150;2023-03-18T09:01:01;94561.50;;;14.09;48.93
67545;BME280;54380;47.770;11.150;2023-03-18T09:03:30;94553.41;;;14.24;48.48
67545;BME280;54380;47.770;11.150;2023-03-18T09:05:57;94561.19;;;14.40;48.71
67545;BME280;54380;47.770;11.150;2023-03-18T09:08:25;94565.31;;;14.56;49.08
67545;BME280;54380;47.770;11.150;2023-03-18T09:10:55;94564.28;;;14.76;48.99
67545;BME280;54380;47.770;11.150;2023-03-18T09:13:22;94563.84;;;14.93;49.17
67545;BME280;54380;47.770;11.150;2023-03-18T09:15:49;94559.66;;;15.06;48.13
67545;BME280;54380;47.770;11.150;2023-03-18T09:18:17;94555.81;;;15.17;48.39
67545;BME280;54380;47.770;11.150;2023-03-18T09:20:45;94558.75;;;15.34;46.77
67545;BME280;54380;47.770;11.150;2023-03-18T09:23:13;94548.91;;;15.54;47.42
67545;BME280;54380;47.770;11.150;2023-03-18T09:25:40;94548.41;;;15.71;46.50
67545;BME280;54380;47.770;11.150;2023-03-18T09:28:11;94556.81;;;15.78;45.09
67545;BME280;54380;47.770;11.150;2023-03-18T09:30:40;94552.56;;;15.77;45.22
67545;BME280;54380;47.770;11.150;2023-03-18T09:33:07;94555.75;;;15.93;43.31
67545;BME280;54380;47.770;11.150;2023-03-18T09:35:36;94562.63;;;16.13;43.49
67545;BME280;54380;47.770;11.150;2023-03-18T09:38:03;94566.69;;;16.24;42.56
67545;BME280;54380;47.770;11.150;2023-03-18T09:40:34;94554.75;;;16.21;42.34
67545;BME280;54380;47.770;11.150;2023-03-18T09:43:22;94549.41;;;16.21;41.67
67545;BME280;54380;47.770;11.150;2023-03-18T09:46:00;94548.00;;;16.43;42.00
67545;BME280;54380;47.770;11.150;2023-03-18T09:48:41;94548.19;;;16.60;40.29
67545;BME280;54380;47.770;11.150;2023-03-18T09:51:19;94544.03;;;16.68;40.65
67545;BME280;54380;47.770;11.150;2023-03-18T09:53:51;94548.91;;;16.94;40.39
67545;BME280;54380;47.770;11.150;2023-03-18T09:56:23;94538.03;;;17.04;40.27
67545;BME280;54380;47.770;11.150;2023-03-18T09:58:56;94536.22;;;17.13;39.97
67545;BME280;54380;47.770;11.150;2023-03-18T10:01:26;94539.34;;;17.29;38.42
67545;BME280;54380;47.770;11.150;2023-03-18T10:03:57;94541.41;;;17.46;39.34
67545;BME280;54380;47.770;11.150;2023-03-18T10:06:26;94540.06;;;17.57;40.36
67545;BME280;54380;47.770;11.150;2023-03-18T10:08:59;94544.94;;;17.77;39.76
67545;BME280;54380;47.770;11.150;2023-03-18T10:11:30;94537.41;;;17.80;39.63
67545;BME280;54380;47.770;11.150;2023-03-18T10:14:13;94535.44;;;17.85;39.87
67545;BME280;54380;47.770;11.150;2023-03-18T10:16:53;94542.31;;;18.09;40.63
67545;BME280;54380;47.770;11.150;2023-03-18T10:19:21;94535.69;;;18.29;39.42
67545;BME280;54380;47.770;11.150;2023-03-18T10:21:55;94538.56;;;18.41;39.18
67545;BME280;54380;47.770;11.150;2023-03-18T10:24:32;94528.66;;;18.41;37.76
67545;BME280;54380;47.770;11.150;2023-03-18T10:27:08;94526.78;;;18.42;38.37
67545;BME280;54380;47.770;11.150;2023-03-18T10:29:46;94525.25;;;18.58;38.18
67545;BME280;54380;47.770;11.150;2023-03-18T10:32:22;94522.69;;;18.76;38.40
67545;BME280;54380;47.770;11.150;2023-03-18T10:35:26;94518.63;;;18.87;36.48
67545;BME280;54380;47.770;11.150;2023-03-18T10:38:01;94517.06;;;18.77;36.98
67545;BME280;54380;47.770;11.150;2023-03-18T10:40:33;94503.56;;;19.00;37.57
67545;BME280;54380;47.770;11.150;2023-03-18T10:43:02;94499.19;;;19.30;37.11
67545;BME280;54380;47.770;11.150;2023-03-18T10:45:32;94501.69;;;19.52;36.01
67545;BME280;54380;47.770;11.150;2023-03-18T10:48:03;94488.00;;;19.63;34.74
67545;BME280;54380;47.770;11.150;2023-03-18T10:50:41;94493.22;;;19.85;35.62
67545;BME280;54380;47.770;11.150;2023-03-18T10:53:14;94494.88;;;20.07;33.32
67545;BME280;54380;47.770;11.150;2023-03-18T10:55:53;94487.31;;;20.09;33.92
67545;BME280;54380;47.770;11.150;2023-03-18T10:58:23;94493.47;;;20.10;33.81
67545;BME280;54380;47.770;11.150;2023-03-18T11:00:51;94486.50;;;20.09;33.56
67545;BME280;54380;47.770;11.150;2023-03-18T11:03:23;94479.91;;;20.06;33.36
67545;BME280;54380;47.770;11.150;2023-03-18T11:05:54;94482.63;;;19.89;33.56
67545;BME280;54380;47.770;11.150;2023-03-18T11:08:33;94477.31;;;19.80;32.99
67545;BME280;54380;47.770;11.150;2023-03-18T11:11:15;94473.34;;;19.86;33.09
67545;BME280;54380;47.770;11.150;2023-03-18T11:13:46;94476.59;;;20.01;33.25
67545;BME280;54380;47.770;11.150;2023-03-18T11:16:22;94472.63;;;20.15;32.98
67545;BME280;54380;47.770;11.150;2023-03-18T11:18:51;94469.28;;;20.27;32.70
67545;BME280;54380;47.770;11.150;2023-03-18T11:21:18;94464.97;;;20.44;31.06
67545;BME280;54380;47.770;11.150;2023-03-18T11:23:52;94454.81;;;20.58;31.84
67545;BME280;54380;47.770;11.150;2023-03-18T11:26:45;94454.94;;;20.70;32.28
67545;BME280;54380;47.770;11.150;2023-03-18T11:29:16;94442.47;;;20.66;30.32
67545;BME280;54380;47.770;11.150;2023-03-18T11:31:50;94450.81;;;20.73;30.35
67545;BME280;54380;47.770;11.150;2023-03-18T11:34:18;94445.44;;;20.73;29.64
67545;BME280;54380;47.770;11.150;2023-03-18T11:36:52;94433.59;;;20.74;30.27
67545;BME280;54380;47.770;11.150;2023-03-18T11:39:21;94426.34;;;20.74;31.19
67545;BME280;54380;47.770;11.150;2023-03-18T11:41:50;94429.53;;;20.68;31.65
67545;BME280;54380;47.770;11.150;2023-03-18T11:44:23;94419.66;;;20.59;31.33
67545;BME280;54380;47.770;11.150;2023-03-18T11:46:59;94419.66;;;20.59;30.78
67545;BME280;54380;47.770;11.150;2023-03-18T11:49:28;94418.56;;;20.52;30.85
67545;BME280;54380;47.770;11.150;2023-03-18T11:52:04;94412.41;;;20.60;30.34
67545;BME280;54380;47.770;11.150;2023-03-18T11:54:57;94412.06;;;20.61;31.76
67545;BME280;54380;47.770;11.150;2023-03-18T11:57:33;94417.16;;;20.54;29.72
67545;BME280;54380;47.770;11.150;2023-03-18T12:00:13;94415.41;;;20.50;30.63
67545;BME280;54380;47.770;11.150;2023-03-18T12:03:10;94407.50;;;20.53;31.30
67545;BME280;54380;47.770;11.150;2023-03-18T12:05:53;94402.91;;;20.63;30.21
67545;BME280;54380;47.770;11.150;2023-03-18T12:08:32;94406.94;;;20.77;31.26
67545;BME280;54380;47.770;11.150;2023-03-18T12:11:09;94405.75;;;20.87;31.77
67545;BME280;54380;47.770;11.150;2023-03-18T12:13:51;94407.00;;;20.90;31.32
67545;BME280;54380;47.770;11.150;2023-03-18T12:16:30;94404.69;;;21.00;29.98
67545;BME280;54380;47.770;11.150;2023-03-18T12:19:35;94411.31;;;21.03;30.48
67545;BME280;54380;47.770;11.150;2023-03-18T12:22:24;94400.63;;;21.15;31.13
67545;BME280;54380;47.770;11.150;2023-03-18T12:25:22;94398.91;;;21.32;31.11
67545;BME280;54380;47.770;11.150;2023-03-18T12:37:25;94391.44;;;21.37;31.61
67545;BME280;54380;47.770;11.150;2023-03-18T12:40:11;94391.41;;;21.25;32.43
67545;BME280;54380;47.770;11.150;2023-03-18T12:42:59;94385.19;;;21.12;32.51
67545;BME280;54380;47.770;11.150;2023-03-18T12:45:32;94397.09;;;21.02;30.32
67545;BME280;54380;47.770;11.150;2023-03-18T12:48:21;94389.53;;;21.04;31.13
67545;BME280;54380;47.770;11.150;2023-03-18T12:51:14;94390.56;;;21.12;32.13
67545;BME280;54380;47.770;11.150;2023-03-18T12:54:07;94386.75;;;21.13;31.96
67545;BME280;54380;47.770;11.150;2023-03-18T12:56:56;94377.72;;;21.18;32.45
67545;BME280;54380;47.770;11.150;2023-03-18T12:59:30;94375.94;;;21.22;32.25
67545;BME280;54380;47.770;11.150;2023-03-18T13:02:24;94376.97;;;21.30;32.41
67545;BME280;54380;47.770;11.150;2023-03-18T13:04:58;94377.84;;;21.21;32.47
67545;BME280;54380;47.770;11.150;2023-03-18T13:07:35;94371.19;;;21.27;32.68
67545;BME280;54380;47.770;11.150;2023-03-18T13:10:17;94364.09;;;21.23;31.92
67545;BME280;54380;47.770;11.150;2023-03-18T13:12:46;94358.41;;;21.24;31.75
67545;BME280;54380;47.770;11.150;2023-03-18T13:15:21;94356.63;;;21.29;32.46
67545;BME280;54380;47.770;11.150;2023-03-18T13:17:51;94352.72;;;21.26;32.28
67545;BME280;54380;47.770;11.150;2023-03-18T13:20:37;94359.03;;;21.09;30.83
67545;BME280;54380;47.770;11.150;2023-03-18T13:23:16;94360.78;;;21.05;31.89
67545;BME280;54380;47.770;11.150;2023-03-18T13:29:19;94360.28;;;20.91;31.10